Time;durP1;ratioP1;P1;durP2;ratioP2;P2;SDS_P1;SDS_P2;PMS_P1;PMS_P2;Temp;Humidity;BMP_temperature;BMP_pressure;BME280_temperature;BME280_humidity;BME280_pressure;Samples;Min_cycle;Max_cycle;Signal;HPM_P1;HPM_P2
2023/11/28 09:53:58;;;;;;;4.18;1.42;;;;;;;19.56;49.10;100834.50;5088364;27;20134;-39
2023/11/28 09:56:24;;;;;;;5.00;1.42;;;;;;;19.62;49.36;100838.03;5081949;28;20111;-36
2023/11/28 09:58:58;;;;;;;4.00;1.40;;;;;;;19.67;49.57;100843.47;5081244;28;20027;-37
2023/11/28 10:01:24;;;;;;;7.32;1.20;;;;;;;19.72;49.47;100842.63;5080860;28;20027;-37
2023/11/28 10:03:50;;;;;;;5.22;1.40;;;;;;;19.78;49.54;100835.97;5077332;28;20036;-37
2023/11/28 10:06:20;;;;;;;1.20;1.10;;;;;;;19.84;49.64;100848.59;5079831;28;20036;-37
2023/11/28 10:08:47;;;;;;;4.30;1.20;;;;;;;19.90;49.53;100846.59;5079705;28;20123;-38
2023/11/28 10:11:16;;;;;;;3.15;1.40;;;;;;;19.94;49.79;100855.91;5078786;28;20427;-34
2023/11/28 10:13:43;;;;;;;1.58;1.13;;;;;;;19.98;49.30;100848.72;5069194;28;20430;-33
2023/11/28 10:16:09;;;;;;;2.10;1.30;;;;;;;20.01;49.82;100848.16;5078035;28;20956;-34
2023/11/28 10:18:34;;;;;;;2.92;1.50;;;;;;;20.06;49.62;100861.03;5076013;28;20024;-34
2023/11/28 10:21:00;;;;;;;2.00;1.20;;;;;;;20.08;49.64;100856.06;5076668;28;20036;-35
2023/11/28 10:23:26;;;;;;;1.65;1.33;;;;;;;20.11;49.71;100860.16;5082549;28;20411;-33
2023/11/28 10:25:51;;;;;;;1.27;1.10;;;;;;;20.12;49.67;100859.03;5074861;28;20028;-35
2023/11/28 10:28:17;;;;;;;7.63;1.55;;;;;;;20.14;49.55;100856.84;5073092;28;20017;-34
2023/11/28 10:30:45;;;;;;;6.88;1.52;;;;;;;20.16;49.35;100857.38;5091210;28;20535;-34
2023/11/28 10:33:11;;;;;;;4.82;1.40;;;;;;;20.15;49.47;100845.53;5077982;28;20577;-33
2023/11/28 10:35:39;;;;;;;4.70;1.38;;;;;;;20.15;49.69;100845.53;5075614;28;20061;-34
2023/11/28 10:38:05;;;;;;;2.72;1.38;;;;;;;20.19;49.24;100848.50;5077511;28;20032;-33
2023/11/28 10:40:30;;;;;;;2.13;1.20;;;;;;;20.18;49.51;100847.72;5079972;28;20027;-34
2023/11/28 10:42:55;;;;;;;1.65;1.20;;;;;;;20.20;49.16;100848.22;5066272;28;20079;-34
2023/11/28 10:45:21;;;;;;;1.33;1.17;;;;;;;20.20;49.37;100842.72;5072021;28;20056;-34
2023/11/28 10:47:46;;;;;;;2.53;1.30;;;;;;;20.22;49.19;100839.69;5076406;28;20499;-34
2023/11/28 10:50:13;;;;;;;2.25;1.30;;;;;;;20.24;49.21;100834.69;5078654;28;20016;-35
2023/11/28 10:52:39;;;;;;;3.67;1.35;;;;;;;20.26;49.08;100832.47;5077736;28;20167;-34
2023/11/28 10:55:09;;;;;;;2.92;1.20;;;;;;;20.28;48.82;100826.69;5078620;28;20599;-34
2023/11/28 10:57:41;;;;;;;2.17;1.20;;;;;;;20.29;49.15;100834.63;5076604;28;20027;-34
2023/11/28 11:00:09;;;;;;;4.93;1.35;;;;;;;20.31;49.07;100826.09;5078879;28;20055;-35
2023/11/28 11:02:35;;;;;;;1.52;1.13;;;;;;;20.32;48.93;100841.50;5077686;28;20012;-35
2023/11/28 11:05:01;;;;;;;1.15;1.00;;;;;;;20.34;48.75;100842.03;5066759;28;20077;-35
2023/11/28 11:07:27;;;;;;;1.90;1.10;;;;;;;20.36;48.84;100842.56;5063196;28;20047;-35
2023/11/28 11:09:53;;;;;;;2.55;1.33;;;;;;;20.38;48.78;100843.09;5079537;28;20058;-34
2023/11/28 11:12:19;;;;;;;3.63;1.45;;;;;;;20.40;48.89;100843.59;5044777;28;20440;-34
2023/11/28 11:14:53;;;;;;;3.22;1.17;;;;;;;20.43;48.67;100845.78;5062144;28;20389;-38
2023/11/28 11:17:28;;;;;;;2.17;1.20;;;;;;;20.46;48.59;100842.41;5058814;28;20093;-39
2023/11/28 11:19:55;;;;;;;1.35;1.13;;;;;;;20.50;48.81;100839.91;5062433;28;20135;-39
2023/11/28 11:22:21;;;;;;;1.45;1.20;;;;;;;20.52;48.67;100840.44;5062879;28;20024;-39
2023/11/28 11:24:47;;;;;;;1.95;1.17;;;;;;;20.56;48.65;100841.47;5063057;28;20032;-34
2023/11/28 11:27:12;;;;;;;3.63;1.40;;;;;;;20.60;48.59;100836.22;5064574;28;20039;-35
2023/11/28 11:29:39;;;;;;;2.35;1.15;;;;;;;20.64;48.71;100821.56;5064284;28;20429;-38
2023/11/28 11:32:10;;;;;;;2.00;1.30;;;;;;;20.69;48.52;100820.69;5064032;28;20491;-38
2023/11/28 11:34:49;;;;;;;1.15;0.90;;;;;;;20.74;48.32;100819.81;5067308;28;20054;-38
2023/11/28 11:37:17;;;;;;;2.05;1.02;;;;;;;20.80;48.63;100821.41;5065795;28;20028;-38
2023/11/28 11:39:44;;;;;;;1.38;1.10;;;;;;;20.84;48.18;100823.28;5064214;28;20074;-38
2023/11/28 11:42:13;;;;;;;1.85;1.02;;;;;;;20.90;48.57;100821.25;5066927;28;20392;-38
2023/11/28 11:44:42;;;;;;;50.40;3.35;;;;;;;20.94;48.23;100827.81;5055967;28;20495;-36
2023/11/28 11:47:21;;;;;;;3.60;1.20;;;;;;;20.98;48.51;100825.25;5063817;28;20036;-38
2023/11/28 11:49:48;;;;;;;3.85;1.33;;;;;;;21.03;48.38;100829.88;5068811;28;20388;-37
2023/11/28 11:52:15;;;;;;;1.55;1.00;;;;;;;21.06;48.08;100829.31;5065502;28;20056;-38
2023/11/28 11:54:44;;;;;;;3.83;1.20;;;;;;;21.08;47.97;100827.03;5065998;28;20515;-38
2023/11/28 11:57:11;;;;;;;134.27;5.05;;;;;;;21.12;48.27;100822.59;5056441;28;20090;-39
2023/11/28 11:59:37;;;;;;;2.53;1.33;;;;;;;21.14;47.91;100823.94;5067557;28;20452;-40
2023/11/28 12:02:03;;;;;;;1.52;1.00;;;;;;;21.18;47.85;100821.41;5064024;28;20102;-38
2023/11/28 12:04:29;;;;;;;3.97;1.17;;;;;;;21.19;47.86;100812.03;5065397;28;20061;-39
2023/11/28 12:07:20;;;;;;;3.47;1.00;;;;;;;21.23;47.89;100815.81;5065997;28;20089;-39
2023/11/28 12:09:46;;;;;;;2.03;0.98;;;;;;;21.25;47.99;100809.97;5058729;28;20037;-36
2023/11/28 12:12:12;;;;;;;4.78;1.17;;;;;;;21.26;47.51;100806.94;5059538;28;20055;-35
2023/11/28 12:14:39;;;;;;;129.02;5.18;;;;;;;21.29;47.51;100816.56;5070635;28;20097;-34
2023/11/28 12:17:04;;;;;;;5.97;1.25;;;;;;;21.29;47.52;100820.13;5065253;28;20404;-36
2023/11/28 12:19:30;;;;;;;3.78;1.00;;;;;;;21.29;47.42;100817.34;5074072;28;20028;-35
2023/11/28 12:22:02;;;;;;;4.25;1.30;;;;;;;21.29;47.69;100822.06;5068783;28;20111;-36
2023/11/28 12:24:28;;;;;;;7.53;1.33;;;;;;;21.27;47.53;100818.78;5066298;28;20296;-36
2023/11/28 12:26:55;;;;;;;1.92;1.25;;;;;;;21.25;47.10;100821.00;5063434;28;20233;-35
2023/11/28 12:29:21;;;;;;;2.90;1.38;;;;;;;21.23;47.03;100823.25;5062189;28;20025;-35
2023/11/28 12:31:46;;;;;;;3.00;1.00;;;;;;;21.22;47.06;100827.13;5079030;28;20070;-35
2023/11/28 12:34:12;;;;;;;2.72;1.45;;;;;;;21.21;47.07;100819.97;5059371;28;20098;-38
2023/11/28 12:36:42;;;;;;;1.90;1.10;;;;;;;21.19;47.40;100814.78;5066611;28;20037;-39
2023/11/28 12:39:08;;;;;;;2.28;1.13;;;;;;;21.19;47.22;100820.28;5063829;28;20498;-39
2023/11/28 12:41:41;;;;;;;4.82;1.23;;;;;;;21.20;47.17;100823.84;5061693;28;20048;-36
2023/11/28 12:44:13;;;;;;;3.92;1.33;;;;;;;21.21;47.23;100822.72;5056965;28;20392;-35
2023/11/28 12:46:39;;;;;;;1.55;1.25;;;;;;;21.22;47.09;100830.69;5063555;28;20025;-37
2023/11/28 12:49:05;;;;;;;2.05;1.02;;;;;;;21.24;47.14;100830.38;5061512;28;20032;-36
2023/11/28 12:51:31;;;;;;;2.08;1.10;;;;;;;21.24;47.03;100830.38;5082551;28;20537;-38
2023/11/28 12:54:07;;;;;;;1.02;0.93;;;;;;;21.24;47.18;100839.50;5060309;28;20044;-38
2023/11/28 12:56:35;;;;;;;2.35;1.10;;;;;;;21.26;47.20;100831.75;5061363;28;20483;-38
2023/11/28 12:59:04;;;;;;;1.20;1.10;;;;;;;21.26;46.91;100833.66;5062823;28;20111;-38
2023/11/28 13:01:31;;;;;;;2.20;1.02;;;;;;;21.25;47.18;100830.13;5061742;28;20051;-38
2023/11/28 13:03:57;;;;;;;3.83;1.25;;;;;;;21.24;46.92;100830.38;5061078;28;20054;-38
2023/11/28 13:06:23;;;;;;;2.97;1.25;;;;;;;21.22;46.84;100830.69;5064662;28;20555;-38
2023/11/28 13:08:50;;;;;;;2.30;1.10;;;;;;;21.22;47.33;100827.13;5061467;28;20094;-38
2023/11/28 13:11:16;;;;;;;2.10;1.23;;;;;;;21.20;46.92;100824.69;5057779;28;20025;-38
2023/11/28 13:13:42;;;;;;;1.45;1.00;;;;;;;21.17;46.96;100820.56;5068930;28;20028;-38
2023/11/28 13:16:08;;;;;;;2.95;1.30;;;;;;;21.16;47.00;100815.34;5072752;28;20031;-38
2023/11/28 13:18:33;;;;;;;135.32;5.00;;;;;;;21.15;46.93;100820.06;5068406;28;20024;-39
2023/11/28 13:20:58;;;;;;;7.65;1.30;;;;;;;21.16;46.79;100816.19;5070180;28;20032;-40
2023/11/28 13:23:24;;;;;;;2.10;1.27;;;;;;;21.20;46.63;100824.69;5078682;28;20016;-39
2023/11/28 13:25:49;;;;;;;3.53;1.20;;;;;;;21.21;46.65;100823.53;5065118;28;20028;-39
2023/11/28 13:28:15;;;;;;;2.47;1.10;;;;;;;21.26;46.70;100819.91;5073586;28;20028;-40
2023/11/28 13:30:42;;;;;;;2.33;1.35;;;;;;;21.29;46.71;100827.56;5065962;28;20043;-39
2023/11/28 13:33:08;;;;;;;2.05;1.23;;;;;;;21.31;46.69;100823.41;5062187;28;20348;-39
2023/11/28 13:35:33;;;;;;;3.35;1.70;;;;;;;21.37;46.70;100818.59;5062752;28;20128;-38
2023/11/28 13:38:01;;;;;;;3.80;1.30;;;;;;;21.41;46.71;100816.91;5063757;28;20024;-40
2023/11/28 13:40:26;;;;;;;3.05;1.35;;;;;;;21.45;46.34;100815.16;5059396;28;20540;-39
2023/11/28 13:42:52;;;;;;;7.45;1.75;;;;;;;21.48;46.65;100816.50;5061560;28;20060;-39
2023/11/28 13:45:18;;;;;;;50.00;16.60;;;;;;;21.50;46.08;100810.72;5055703;28;20032;-39
2023/11/28 13:47:45;;;;;;;29.70;9.85;;;;;;;21.51;46.23;100810.41;5062166;28;20094;-40
2023/11/28 13:50:10;;;;;;;22.58;8.25;;;;;;;21.51;46.17;100812.31;5051596;28;20040;-39
2023/11/28 13:52:36;;;;;;;21.42;7.22;;;;;;;21.50;46.09;100814.28;5058199;28;20037;-38
2023/11/28 13:55:02;;;;;;;14.82;5.30;;;;;;;21.49;45.92;100818.16;5076300;28;20493;-38
2023/11/28 13:57:28;;;;;;;17.92;5.88;;;;;;;21.49;45.98;100820.91;5076021;28;20086;-40
2023/11/28 13:59:54;;;;;;;13.68;4.85;;;;;;;21.48;45.79;100816.50;5062448;28;20847;-37
2023/11/28 14:02:19;;;;;;;11.30;4.03;;;;;;;21.47;45.92;100814.88;5054668;28;20025;-38
2023/11/28 14:04:44;;;;;;;9.10;3.90;;;;;;;21.47;45.93;100820.38;5065473;28;20044;-38
2023/11/28 14:07:11;;;;;;;8.98;3.42;;;;;;;21.47;45.53;100818.47;5060079;28;20028;-37
2023/11/28 14:09:37;;;;;;;8.98;3.40;;;;;;;21.46;45.68;100807.75;5062935;28;20477;-39
2023/11/28 14:12:02;;;;;;;5.70;2.55;;;;;;;21.46;45.58;100813.25;5073683;28;20060;-39
2023/11/28 14:14:28;;;;;;;10.80;2.50;;;;;;;21.48;46.48;100822.03;5065689;28;20423;-38
2023/11/28 14:16:53;;;;;;;6.63;2.15;;;;;;;21.51;46.96;100832.47;5052529;28;20178;-39
2023/11/28 14:19:18;;;;;;;9.93;2.25;;;;;;;21.53;46.67;100829.41;5077952;28;20346;-39
2023/11/28 14:21:44;;;;;;;7.55;1.90;;;;;;;21.54;45.84;100831.84;5063323;28;20494;-39
2023/11/28 14:24:09;;;;;;;13.93;3.13;;;;;;;21.55;45.80;100829.94;5065083;28;20024;-39
2023/11/28 14:26:35;;;;;;;140.13;8.30;;;;;;;21.56;45.67;100823.28;5061613;28;20027;-38
2023/11/28 14:29:00;;;;;;;37.85;6.68;;;;;;;21.58;45.47;100819.13;5061791;28;20017;-38
2023/11/28 14:31:25;;;;;;;46.75;8.13;;;;;;;21.60;45.42;100825.16;5063984;28;20205;-35
2023/11/28 14:33:51;;;;;;;37.67;6.43;;;;;;;21.60;45.51;100822.41;5061843;28;20378;-35
2023/11/28 14:36:16;;;;;;;30.58;5.25;;;;;;;21.60;46.16;100822.41;5061695;28;20150;-35
2023/11/28 14:38:42;;;;;;;24.88;5.60;;;;;;;21.59;45.63;100831.81;5060777;28;20028;-35
2023/11/28 14:41:08;;;;;;;24.02;5.07;;;;;;;21.58;45.55;100826.56;5066229;28;20023;-35
2023/11/28 14:43:33;;;;;;;21.23;4.70;;;;;;;21.57;45.93;100828.53;5061708;28;20024;-35
2023/11/28 14:45:59;;;;;;;23.10;4.22;;;;;;;21.54;45.77;100815.28;5062438;28;20316;-35
2023/11/28 14:48:24;;;;;;;29.02;3.75;;;;;;;21.54;45.85;100814.50;5063524;28;20029;-35
2023/11/28 14:50:49;;;;;;;25.00;4.22;;;;;;;21.50;45.80;100810.72;5060827;28;20124;-35
2023/11/28 14:53:15;;;;;;;23.88;5.80;;;;;;;21.45;45.76;100809.66;5064598;28;20715;-35
2023/11/28 14:55:40;;;;;;;19.02;4.57;;;;;;;21.43;46.44;100811.09;5067081;28;20029;-35
2023/11/28 14:58:06;;;;;;;17.55;3.72;;;;;;;21.42;46.87;100812.19;5060452;28;20063;-35
2023/11/28 15:00:33;;;;;;;17.52;4.15;;;;;;;21.38;46.81;100798.19;5065079;28;20161;-34
2023/11/28 15:02:58;;;;;;;18.02;3.78;;;;;;;21.37;47.07;100804.00;5062715;28;20055;-35
2023/11/28 15:05:24;;;;;;;31.95;5.28;;;;;;;21.34;46.27;100794.41;5065156;28;20076;-35
2023/11/28 15:07:50;;;;;;;24.58;4.72;;;;;;;21.31;46.35;100795.84;5063830;28;20020;-35
2023/11/28 15:10:16;;;;;;;14.38;4.07;;;;;;;21.29;46.10;100797.25;5064475;28;20396;-35
2023/11/28 15:12:41;;;;;;;19.17;4.18;;;;;;;21.26;45.86;100795.94;5064128;28;20457;-35
2023/11/28 15:15:07;;;;;;;16.90;4.45;;;;;;;21.23;45.93;100791.00;5062346;28;20031;-35
2023/11/28 15:17:33;;;;;;;13.95;3.88;;;;;;;21.21;46.03;100795.97;5077491;28;20025;-35
2023/11/28 15:19:58;;;;;;;10.73;3.33;;;;;;;21.18;45.67;100782.81;5064241;28;20033;-35
2023/11/28 15:22:26;;;;;;;12.20;3.13;;;;;;;21.15;45.88;100780.66;5063768;28;20099;-35
2023/11/28 15:24:52;;;;;;;11.35;3.03;;;;;;;21.13;45.85;100777.41;5063235;28;20024;-35
2023/11/28 15:27:19;;;;;;;9.80;3.22;;;;;;;21.11;45.70;100779.63;5059118;28;20417;-35
2023/11/28 15:29:47;;;;;;;10.07;3.00;;;;;;;21.09;45.77;100774.41;5061710;28;20037;-35
2023/11/28 15:32:12;;;;;;;14.95;3.35;;;;;;;21.10;45.48;100780.72;5065214;28;20028;-35
2023/11/28 15:34:37;;;;;;;9.32;3.40;;;;;;;21.09;45.62;100779.09;5065649;28;20369;-35
2023/11/28 15:37:04;;;;;;;7.55;2.95;;;;;;;21.09;45.62;100779.94;5065267;28;20024;-35
2023/11/28 15:39:29;;;;;;;7.95;3.28;;;;;;;21.09;45.45;100781.84;5063922;28;20029;-33
2023/11/28 15:41:56;;;;;;;9.00;4.40;;;;;;;21.08;45.65;100786.56;5065617;28;20025;-34
2023/11/28 15:44:22;;;;;;;8.55;3.95;;;;;;;21.07;45.47;100778.59;5054779;28;20184;-34
2023/11/28 15:46:47;;;;;;;7.45;4.18;;;;;;;21.07;45.47;100779.41;5063033;28;20024;-34
2023/11/28 15:49:12;;;;;;;19.02;4.05;;;;;;;21.05;45.54;100786.31;5064798;28;20070;-34
2023/11/28 15:51:38;;;;;;;12.30;3.53;;;;;;;21.05;45.51;100791.84;5069967;28;20028;-34
2023/11/28 15:54:05;;;;;;;5.50;3.15;;;;;;;21.02;45.35;100785.00;5063874;28;20446;-34
2023/11/28 15:56:30;;;;;;;7.13;2.67;;;;;;;21.00;45.55;100779.78;5065783;28;20663;-34
2023/11/28 15:58:56;;;;;;;5.25;3.05;;;;;;;20.98;45.36;100782.00;5064558;28;20107;-34
2023/11/28 16:01:22;;;;;;;6.20;2.60;;;;;;;20.96;45.43;100781.47;5064420;28;20028;-35
2023/11/28 16:03:47;;;;;;;6.18;2.58;;;;;;;20.96;45.50;100781.47;5058108;28;20029;-35
2023/11/28 16:06:14;;;;;;;6.07;2.58;;;;;;;20.95;45.46;100773.53;5061587;28;20059;-35
2023/11/28 16:08:39;;;;;;;5.65;2.10;;;;;;;20.93;45.64;100768.31;5062306;28;20409;-35
2023/11/28 16:11:06;;;;;;;5.70;2.05;;;;;;;20.91;45.58;100758.72;5062629;28;20387;-34
2023/11/28 16:13:31;;;;;;;3.60;2.33;;;;;;;20.91;45.98;100758.72;5068264;28;20119;-37
2023/11/28 16:15:57;;;;;;;4.93;2.10;;;;;;;20.90;45.55;100763.41;5068071;28;20115;-38
2023/11/28 16:18:22;;;;;;;4.10;2.10;;;;;;;20.90;45.67;100752.38;5079970;28;20115;-35
2023/11/28 16:20:48;;;;;;;3.40;2.03;;;;;;;20.91;45.62;100745.75;5063904;28;20108;-34
2023/11/28 16:23:13;;;;;;;6.78;2.30;;;;;;;20.92;45.24;100730.03;5066573;28;20157;-35
2023/11/28 16:25:40;;;;;;;3.08;2.00;;;;;;;20.93;45.41;100726.16;5065618;28;20102;-33
2023/11/28 16:28:05;;;;;;;5.22;2.10;;;;;;;20.95;45.36;100729.44;5063718;28;20063;-33
2023/11/28 16:30:30;;;;;;;3.67;2.10;;;;;;;20.97;45.12;100722.50;5064281;28;20190;-34
2023/11/28 16:32:56;;;;;;;3.78;2.20;;;;;;;21.00;45.07;100716.41;5062257;28;20041;-34
2023/11/28 16:35:21;;;;;;;3.15;1.80;;;;;;;21.01;45.29;100719.97;5064570;28;20162;-37
2023/11/28 16:37:47;;;;;;;5.15;1.77;;;;;;;21.08;45.09;100728.69;5064154;28;20082;-37
2023/11/28 16:40:13;;;;;;;2.25;1.90;;;;;;;21.11;45.08;100735.53;5064041;28;20040;-37
2023/11/28 16:42:39;;;;;;;4.82;1.98;;;;;;;21.13;44.74;100734.09;5062245;28;20335;-33
2023/11/28 16:45:05;;;;;;;46.55;3.08;;;;;;;21.16;45.10;100732.69;5055927;28;20040;-36
2023/11/28 16:47:30;;;;;;;6.07;1.75;;;;;;;21.19;45.00;100742.28;5055152;28;20028;-36
2023/11/28 16:49:55;;;;;;;8.45;1.63;;;;;;;21.19;44.96;100739.53;5061345;28;20086;-36
2023/11/28 16:52:21;;;;;;;3.63;1.52;;;;;;;21.15;44.78;100736.56;5064894;28;20043;-36
2023/11/28 16:54:46;;;;;;;2.80;1.65;;;;;;;21.12;45.23;100735.22;5061571;28;20273;-36
2023/11/28 16:57:12;;;;;;;3.55;1.65;;;;;;;21.09;44.90;100733.09;5068185;28;20535;-39
2023/11/28 16:59:37;;;;;;;3.03;1.70;;;;;;;21.05;45.03;100722.97;5063919;28;20120;-39
2023/11/28 17:02:03;;;;;;;5.80;1.60;;;;;;;20.99;44.99;100722.22;5060118;28;20070;-39
2023/11/28 17:04:28;;;;;;;3.05;1.58;;;;;;;20.92;45.11;100722.59;5063489;28;20094;-40
2023/11/28 17:06:57;;;;;;;4.10;1.73;;;;;;;20.86;45.02;100721.03;5061684;28;20028;-39
2023/11/28 17:09:24;;;;;;;2.53;1.60;;;;;;;20.81;44.93;100730.19;5062846;28;20486;-39
2023/11/28 17:11:50;;;;;;;3.55;1.48;;;;;;;20.75;45.28;100727.84;5059521;28;20492;-39
2023/11/28 17:14:16;;;;;;;3.30;1.45;;;;;;;20.69;45.59;100719.59;5055965;28;20476;-40
2023/11/28 17:16:41;;;;;;;3.70;1.40;;;;;;;20.67;45.37;100723.75;5067988;28;20077;-40
2023/11/28 17:19:07;;;;;;;2.25;1.50;;;;;;;20.62;45.82;100719.16;5063334;28;20043;-40
2023/11/28 17:21:32;;;;;;;2.45;1.38;;;;;;;20.59;45.94;100713.41;5062665;28;20028;-40
2023/11/28 17:23:59;;;;;;;2.78;1.45;;;;;;;20.56;45.93;100712.06;5056597;28;20021;-39
2023/11/28 17:26:24;;;;;;;2.40;1.50;;;;;;;20.52;46.47;100711.84;5068677;28;20473;-39
2023/11/28 17:28:50;;;;;;;3.20;1.58;;;;;;;20.49;46.06;100708.88;5067474;28;20025;-39
2023/11/28 17:31:15;;;;;;;2.30;1.38;;;;;;;20.46;46.26;100706.72;5055974;28;20024;-39
2023/11/28 17:33:41;;;;;;;2.13;1.20;;;;;;;20.42;45.65;100709.25;5057182;28;20455;-39
2023/11/28 17:36:07;;;;;;;4.13;1.40;;;;;;;20.36;45.92;100694.72;5057480;28;20032;-35
2023/11/28 17:38:32;;;;;;;2.97;1.48;;;;;;;20.28;45.40;100700.91;5059966;28;20435;-35
2023/11/28 17:40:58;;;;;;;1.63;1.10;;;;;;;20.23;45.99;100700.16;5062593;28;20020;-36
2023/11/28 17:43:23;;;;;;;2.45;1.55;;;;;;;20.18;46.05;100692.78;5059448;28;20115;-38
2023/11/28 17:45:49;;;;;;;1.63;1.30;;;;;;;20.14;45.98;100697.25;5056334;28;20025;-38
2023/11/28 17:48:14;;;;;;;3.50;1.63;;;;;;;20.10;46.03;100686.00;5062523;28;20149;-39
2023/11/28 17:50:42;;;;;;;2.03;1.30;;;;;;;20.08;46.05;100684.66;5063257;28;20106;-39
2023/11/28 17:53:07;;;;;;;1.63;1.20;;;;;;;20.06;46.09;100686.88;5070301;28;20105;-38
2023/11/28 17:55:41;;;;;;;1.85;1.27;;;;;;;20.01;46.15;100674.84;5063191;28;20025;-39
2023/11/28 17:58:07;;;;;;;1.80;1.40;;;;;;;20.01;46.33;100676.75;5077123;28;20028;-39
2023/11/28 18:00:36;;;;;;;2.83;1.20;;;;;;;19.98;46.59;100669.91;5062453;28;20050;-36
2023/11/28 18:03:04;;;;;;;1.48;1.20;;;;;;;19.98;46.36;100664.41;5060564;28;20491;-36
2023/11/28 18:05:35;;;;;;;1.48;1.10;;;;;;;19.97;46.67;100668.28;5062922;28;20361;-36
2023/11/28 18:08:00;;;;;;;1.48;1.15;;;;;;;19.97;46.43;100668.28;5062809;28;20056;-36
2023/11/28 18:10:26;;;;;;;2.10;1.10;;;;;;;19.98;46.96;100656.16;5062943;28;20100;-36
2023/11/28 18:12:56;;;;;;;2.22;1.20;;;;;;;19.98;46.73;100652.59;5062268;28;20024;-35
2023/11/28 18:15:22;;;;;;;1.92;1.30;;;;;;;19.97;47.00;100653.72;5056288;28;20035;-36
2023/11/28 18:17:47;;;;;;;1.60;1.30;;;;;;;19.98;46.97;100653.41;5065196;28;20571;-36
2023/11/28 18:20:13;;;;;;;1.30;1.20;;;;;;;19.96;47.04;100647.41;5066413;28;20034;-36
2023/11/28 18:22:39;;;;;;;1.83;1.30;;;;;;;19.96;47.20;100641.06;5065729;28;20020;-36
2023/11/28 18:25:05;;;;;;;2.03;1.20;;;;;;;19.96;47.36;100638.31;5066312;28;20485;-36
2023/11/28 18:27:30;;;;;;;1.30;1.20;;;;;;;19.96;47.27;100630.06;5062259;28;20108;-36
2023/11/28 18:29:56;;;;;;;2.75;1.17;;;;;;;19.96;47.15;100630.91;5066882;28;20112;-34
2023/11/28 18:32:21;;;;;;;1.33;1.20;;;;;;;19.95;47.56;100621.00;5066502;28;20112;-35
2023/11/28 18:34:49;;;;;;;1.38;1.20;;;;;;;19.97;47.28;100627.00;5066188;28;20478;-34
2023/11/28 18:37:15;;;;;;;2.08;1.35;;;;;;;19.97;47.28;100618.75;5079519;28;20513;-35
2023/11/28 18:39:41;;;;;;;2.25;1.05;;;;;;;19.98;47.34;100622.34;5072471;28;20427;-35
2023/11/28 18:42:06;;;;;;;1.10;1.00;;;;;;;19.99;47.49;100618.50;5066680;28;20054;-38
2023/11/28 18:44:32;;;;;;;2.55;1.08;;;;;;;20.00;47.59;100614.59;5055806;28;20028;-35
2023/11/28 18:46:57;;;;;;;1.25;1.02;;;;;;;20.00;47.38;100620.09;5081933;28;20031;-35
2023/11/28 18:49:22;;;;;;;1.30;1.08;;;;;;;20.00;47.10;100615.44;5063243;28;20025;-35
2023/11/28 18:51:48;;;;;;;1.20;1.10;;;;;;;20.00;47.23;100614.59;5080886;28;20032;-35
2023/11/28 18:54:14;;;;;;;1.42;1.00;;;;;;;19.99;47.44;100615.75;5065136;28;20055;-35
2023/11/28 18:56:39;;;;;;;1.27;1.17;;;;;;;19.97;47.35;100610.50;5065817;28;20087;-35
2023/11/28 18:59:04;;;;;;;1.33;1.20;;;;;;;19.95;47.05;100600.94;5063844;28;20025;-38
2023/11/28 19:01:31;;;;;;;2.00;1.30;;;;;;;19.93;46.76;100597.69;5066112;28;20023;-35
2023/11/28 19:03:58;;;;;;;3.63;1.10;;;;;;;19.89;46.98;100589.19;5077240;28;20039;-35
2023/11/28 19:06:28;;;;;;;1.50;1.40;;;;;;;19.87;46.84;100596.91;5066089;28;20020;-39
2023/11/28 19:08:55;;;;;;;3.58;1.40;;;;;;;19.86;47.00;100606.28;5064251;28;20058;-38
2023/11/28 19:11:23;;;;;;;1.58;1.25;;;;;;;19.83;46.78;100602.19;5081431;28;20534;-38
2023/11/28 19:13:49;;;;;;;1.30;1.20;;;;;;;19.82;46.88;100577.72;5071785;28;20066;-35
2023/11/28 19:16:16;;;;;;;1.63;1.10;;;;;;;19.80;46.75;100580.72;5067004;28;20046;-35
2023/11/28 19:18:43;;;;;;;1.75;1.17;;;;;;;19.78;46.77;100585.72;5063360;28;20480;-38
2023/11/28 19:21:10;;;;;;;1.88;1.30;;;;;;;19.75;46.56;100580.00;5064157;28;20354;-35
2023/11/28 19:23:35;;;;;;;1.15;1.05;;;;;;;19.69;46.26;100588.31;5065398;28;20028;-35
2023/11/28 19:26:00;;;;;;;1.50;1.20;;;;;;;19.66;46.19;100610.06;5066336;28;20378;-38
2023/11/28 19:28:26;;;;;;;1.40;1.30;;;;;;;19.60;46.85;100581.81;5066467;28;20029;-39
2023/11/28 19:30:51;;;;;;;1.10;1.00;;;;;;;19.56;46.61;100583.53;5064685;28;20052;-38
2023/11/28 19:33:17;;;;;;;1.30;1.20;;;;;;;19.52;46.75;100572.31;5066577;28;20040;-35
2023/11/28 19:35:42;;;;;;;2.00;1.23;;;;;;;19.53;46.69;100562.13;5071682;28;20055;-35
2023/11/28 19:38:07;;;;;;;1.27;1.10;;;;;;;19.52;46.97;100558.56;5064455;28;20024;-36
2023/11/28 19:40:33;;;;;;;1.90;0.90;;;;;;;19.51;46.98;100578.91;5064887;28;20028;-36
2023/11/28 19:43:00;;;;;;;1.80;1.13;;;;;;;19.53;46.98;100573.94;5079369;28;20103;-36
2023/11/28 19:45:25;;;;;;;1.33;1.00;;;;;;;19.53;47.03;100570.34;5056730;28;20032;-35
2023/11/28 19:47:53;;;;;;;1.77;1.20;;;;;;;19.53;46.82;100567.63;5063297;28;20381;-35
2023/11/28 19:50:19;;;;;;;1.42;1.02;;;;;;;19.52;46.98;100566.81;5062842;28;20162;-38
2023/11/28 19:52:47;;;;;;;1.30;1.20;;;;;;;19.52;46.90;100566.81;5068056;28;20074;-39
2023/11/28 19:55:13;;;;;;;1.13;0.82;;;;;;;19.53;47.22;100562.13;5066550;28;20056;-38
2023/11/28 19:57:38;;;;;;;1.98;1.10;;;;;;;19.53;47.25;100560.19;5062841;28;20036;-39
2023/11/28 20:00:05;;;;;;;1.67;1.10;;;;;;;19.54;47.45;100563.75;5075774;28;20590;-39
2023/11/28 20:02:31;;;;;;;1.10;1.00;;;;;;;19.55;47.13;100562.66;5065375;28;20315;-39
2023/11/28 20:04:56;;;;;;;1.23;1.02;;;;;;;19.55;47.34;100555.22;5072049;28;20428;-39
2023/11/28 20:07:22;;;;;;;1.45;1.20;;;;;;;19.55;47.03;100546.16;5062300;28;20025;-39
2023/11/28 20:09:47;;;;;;;2.88;1.40;;;;;;;19.53;47.21;100554.69;5064008;28;20156;-36
2023/11/28 20:12:14;;;;;;;5.45;1.40;;;;;;;19.51;47.23;100537.69;5060908;28;20250;-34
2023/11/28 20:14:39;;;;;;;5.00;1.33;;;;;;;19.49;47.59;100530.84;5063254;28;20062;-34
2023/11/28 20:17:06;;;;;;;3.38;1.63;;;;;;;19.48;47.66;100526.44;5064039;28;20059;-34
2023/11/28 20:19:34;;;;;;;5.90;1.00;;;;;;;19.49;47.65;100522.59;5060448;28;20040;-35
2023/11/28 20:21:59;;;;;;;2.67;1.20;;;;;;;19.48;47.58;100519.00;5063361;28;20032;-35
2023/11/28 20:24:25;;;;;;;2.72;1.30;;;;;;;19.51;48.45;100509.34;5064978;28;20042;-35
2023/11/28 20:26:52;;;;;;;2.40;1.50;;;;;;;19.54;49.24;100511.53;5068681;28;20062;-35
2023/11/28 20:29:18;;;;;;;6.55;1.40;;;;;;;19.57;49.57;100516.44;5064533;28;20086;-39
2023/11/28 20:31:44;;;;;;;2.17;1.42;;;;;;;19.59;49.12;100519.69;5070435;28;20439;-39
2023/11/28 20:34:12;;;;;;;1.65;1.30;;;;;;;19.61;49.13;100522.16;5068723;28;20024;-36
2023/11/28 20:36:37;;;;;;;1.98;1.25;;;;;;;19.64;49.37;100527.06;5078296;28;20260;-36
2023/11/28 20:39:07;;;;;;;2.97;1.30;;;;;;;19.65;49.37;100526.75;5061253;28;20370;-35
2023/11/28 20:41:39;;;;;;;1.83;1.20;;;;;;;19.70;49.59;100539.63;5064192;28;20028;-36
2023/11/28 20:44:05;;;;;;;3.45;1.30;;;;;;;19.72;49.56;100529.97;5061339;28;20032;-36
2023/11/28 20:46:30;;;;;;;4.50;1.67;;;;;;;19.76;49.73;100521.16;5062820;28;20493;-36
2023/11/28 20:48:56;;;;;;;1.85;1.50;;;;;;;19.76;49.72;100508.19;5063460;28;20056;-35
2023/11/28 20:51:22;;;;;;;3.05;1.33;;;;;;;19.76;49.59;100513.69;5064462;28;20122;-34
2023/11/28 20:53:48;;;;;;;2.25;1.20;;;;;;;19.77;50.15;100522.78;5065489;28;20056;-35
2023/11/28 20:56:14;;;;;;;2.15;1.40;;;;;;;19.76;49.89;100512.91;5063244;28;20742;-35
2023/11/28 20:58:40;;;;;;;3.00;1.40;;;;;;;19.75;50.49;100512.06;5061745;28;20028;-35
2023/11/28 21:01:05;;;;;;;4.25;1.35;;;;;;;19.75;50.29;100511.25;5047551;28;20357;-38
2023/11/28 21:03:31;;;;;;;3.50;1.27;;;;;;;19.72;50.55;100516.22;5071652;28;20053;-39
2023/11/28 21:05:56;;;;;;;1.77;1.20;;;;;;;19.70;50.42;100507.44;5064254;28;20329;-39
2023/11/28 21:08:21;;;;;;;2.88;1.27;;;;;;;19.68;50.70;100512.44;5063836;28;20027;-35
2023/11/28 21:10:47;;;;;;;1.55;1.13;;;;;;;19.68;50.47;100506.09;5048705;28;20119;-34
2023/11/28 21:13:14;;;;;;;2.40;1.30;;;;;;;19.67;50.94;100491.56;5063530;28;20389;-35